Time;durP1;ratioP1;P1;durP2;ratioP2;P2;SDS_P1;SDS_P2;PMS_P1;PMS_P2;Temp;Humidity;BMP_temperature;BMP_pressure;BME280_temperature;BME280_humidity;BME280_pressure;Samples;Min_cycle;Max_cycle;Signal;HPM_P1;HPM_P2
2021/10/07 00:02:17;;;;;;;2.08;1.40;;;;;;;10.69;87.36;98214.84;5076153;28;20047;-96
2021/10/07 00:04:44;;;;;;;3.28;1.80;;;;;;;10.83;86.63;98232.97;5076342;28;20048;-94
2021/10/07 00:07:10;;;;;;;5.18;2.05;;;;;;;10.85;86.57;98231.13;5076206;28;20040;-95
2021/10/07 00:09:38;;;;;;;2.08;1.52;;;;;;;10.78;86.94;98208.34;5074848;28;20509;-94
2021/10/07 00:12:05;;;;;;;4.78;1.70;;;;;;;10.73;87.55;98212.06;5074368;28;20056;-94
2021/10/07 00:14:31;;;;;;;3.45;1.60;;;;;;;10.55;89.10;98200.31;5074340;28;20060;-95
2021/10/07 00:16:57;;;;;;;1.60;1.40;;;;;;;10.64;88.63;98229.22;5074473;28;20074;-95
2021/10/07 00:19:23;;;;;;;3.42;1.60;;;;;;;10.53;91.33;98216.31;5074728;28;20563;-95
2021/10/07 00:21:50;;;;;;;2.13;1.52;;;;;;;10.39;92.28;98214.16;5074816;28;20048;-94
2021/10/07 00:24:16;;;;;;;3.20;2.00;;;;;;;10.46;93.54;98236.94;5075091;28;20040;-95
2021/10/07 00:26:43;;;;;;;3.10;2.08;;;;;;;10.24;94.28;98225.31;5074472;28;20131;-94
2021/10/07 00:41:14;;;;;;;2.88;1.80;;;;;;;9.75;96.17;98218.97;5092013;27;20373;-92
2021/10/07 00:43:40;;;;;;;5.57;1.90;;;;;;;9.76;95.82;98218.94;5091957;28;20044;-94
2021/10/07 00:46:05;;;;;;;3.38;2.00;;;;;;;9.75;95.50;98221.63;5091432;28;20041;-93
2021/10/07 00:48:31;;;;;;;4.47;2.00;;;;;;;9.85;94.53;98213.31;5091762;28;20040;-93
2021/10/07 00:50:57;;;;;;;4.75;2.00;;;;;;;9.90;93.25;98194.56;5091827;28;20520;-93
2021/10/07 00:53:23;;;;;;;3.85;2.03;;;;;;;9.93;92.98;98206.84;5091904;28;20036;-95
2021/10/07 00:55:51;;;;;;;3.58;1.75;;;;;;;9.87;93.76;98207.94;5091656;28;20592;-95
2021/10/07 00:58:19;;;;;;;4.53;2.00;;;;;;;9.80;94.25;98219.66;5091706;28;20036;-94
2021/10/07 01:00:45;;;;;;;2.20;1.80;;;;;;;9.69;95.40;98195.25;5091204;28;20032;-94
2021/10/07 01:03:11;;;;;;;2.47;1.80;;;;;;;9.59;94.92;98197.38;5091587;28;20473;-93
2021/10/07 01:05:38;;;;;;;2.17;1.90;;;;;;;9.71;94.80;98219.97;5091370;28;20068;-93
2021/10/07 01:08:05;;;;;;;3.60;1.90;;;;;;;9.57;95.13;98204.50;5091406;28;20040;-94
2021/10/07 01:10:31;;;;;;;2.85;1.80;;;;;;;9.55;95.03;98204.53;5091813;28;20075;-94
2021/10/07 01:12:57;;;;;;;4.88;1.95;;;;;;;9.58;95.51;98220.38;5091183;28;20064;-95
2021/10/07 01:15:24;;;;;;;4.40;1.80;;;;;;;9.44;95.72;98188.97;5091013;28;20044;-94
2021/10/07 01:17:50;;;;;;;2.65;1.60;;;;;;;9.57;95.77;98201.84;5091130;28;20103;-93
2021/10/07 01:20:17;;;;;;;3.15;1.90;;;;;;;9.72;94.92;98195.19;5090815;28;20068;-93
2021/10/07 01:22:43;;;;;;;3.83;2.30;;;;;;;9.90;93.60;98169.78;5072960;28;20559;-94
2021/10/07 01:25:09;;;;;;;4.38;2.10;;;;;;;10.03;93.89;98198.53;5091108;28;20505;-94
2021/10/07 01:27:37;;;;;;;7.00;2.50;;;;;;;10.15;92.52;98196.38;5091198;28;20048;-94
2021/10/07 01:30:07;;;;;;;4.53;1.83;;;;;;;10.25;91.46;98184.50;5091074;28;20041;-93
2021/10/07 01:32:34;;;;;;;4.40;2.20;;;;;;;10.12;91.65;98159.28;5091167;28;20122;-93
2021/10/07 01:35:00;;;;;;;3.03;1.98;;;;;;;10.14;92.14;98174.25;5090914;28;20036;-94
2021/10/07 01:37:28;;;;;;;2.45;1.67;;;;;;;10.08;93.26;98172.69;5091358;28;20151;-94
2021/10/07 01:39:53;;;;;;;4.30;1.92;;;;;;;10.00;94.17;98172.09;5092279;28;20098;-93
2021/10/07 01:42:19;;;;;;;7.63;2.28;;;;;;;10.05;94.34;98178.09;5092632;28;20044;-93
2021/10/07 01:44:45;;;;;;;3.33;1.83;;;;;;;10.16;94.81;98201.63;5092498;28;20037;-94
2021/10/07 01:47:11;;;;;;;4.13;2.10;;;;;;;10.01;95.11;98165.84;5092063;28;20101;-93
2021/10/07 01:49:37;;;;;;;3.60;2.10;;;;;;;10.10;94.16;98191.22;5091911;28;20037;-93
2021/10/07 01:52:03;;;;;;;2.90;2.13;;;;;;;10.01;94.52;98160.53;5080887;28;20078;-93
2021/10/07 01:54:31;;;;;;;4.93;2.30;;;;;;;10.29;93.82;98199.47;5078330;28;20052;-94
2021/10/07 01:56:57;;;;;;;2.85;2.17;;;;;;;10.27;93.02;98180.00;5076958;28;20052;-93
2021/10/07 01:59:23;;;;;;;5.68;2.40;;;;;;;10.26;92.14;98167.66;5076771;28;20533;-92
2021/10/07 02:01:48;;;;;;;3.67;2.05;;;;;;;10.23;91.79;98146.50;5077954;28;20044;-93
2021/10/07 02:04:14;;;;;;;3.85;2.13;;;;;;;10.38;93.32;98171.69;5077036;28;20037;-95
2021/10/07 02:06:40;;;;;;;4.72;2.20;;;;;;;10.58;91.41;98174.50;5078832;28;20098;-94
2021/10/07 02:09:06;;;;;;;3.70;2.00;;;;;;;10.65;89.68;98161.84;5077299;28;20560;-93
2021/10/07 02:11:34;;;;;;;3.72;1.80;;;;;;;10.77;91.45;98176.47;5076892;28;20122;-94
2021/10/07 02:14:01;;;;;;;5.70;2.30;;;;;;;10.72;91.38;98171.31;5078150;28;20151;-95
2021/10/07 02:16:27;;;;;;;3.28;2.00;;;;;;;10.71;92.21;98163.41;5077595;28;20067;-94
2021/10/07 02:18:53;;;;;;;4.15;2.22;;;;;;;10.80;90.21;98171.03;5076501;28;20032;-94
2021/10/07 02:21:19;;;;;;;3.20;2.20;;;;;;;10.83;89.00;98176.25;5077057;28;20120;-93
2021/10/07 02:23:45;;;;;;;4.93;2.47;;;;;;;10.85;89.24;98177.06;5077713;28;20098;-95
2021/10/07 02:26:11;;;;;;;5.05;2.63;;;;;;;10.75;89.52;98168.53;5076797;28;20060;-94
2021/10/07 02:28:38;;;;;;;3.88;2.40;;;;;;;10.86;89.85;98169.03;5076674;28;20064;-94
2021/10/07 02:31:04;;;;;;;3.60;2.20;;;;;;;10.95;89.72;98169.59;5076242;28;20048;-94
2021/10/07 02:33:30;;;;;;;2.97;2.30;;;;;;;10.95;89.92;98157.16;5076526;28;20406;-94
2021/10/07 02:35:56;;;;;;;4.53;2.40;;;;;;;10.73;90.69;98146.44;5076399;28;20537;-92
2021/10/07 02:38:22;;;;;;;4.05;2.42;;;;;;;10.77;90.03;98155.19;5076244;28;20079;-96
2021/10/07 02:40:48;;;;;;;3.70;2.30;;;;;;;10.73;90.71;98158.88;5076291;28;20045;-94
2021/10/07 02:43:13;;;;;;;6.10;3.13;;;;;;;10.83;90.42;98174.44;5076162;28;20051;-93
2021/10/07 02:45:41;;;;;;;5.78;2.65;;;;;;;10.71;91.10;98172.22;5076450;28;20397;-92
2021/10/07 02:48:07;;;;;;;4.32;2.35;;;;;;;10.78;91.39;98181.75;5077412;28;20098;-94
2021/10/07 02:50:33;;;;;;;4.13;2.47;;;;;;;10.63;92.23;98163.69;5077442;28;20037;-93
2021/10/07 02:52:59;;;;;;;4.32;2.20;;;;;;;10.88;92.14;98190.22;5078458;28;20079;-94
2021/10/07 02:55:25;;;;;;;4.07;2.80;;;;;;;10.75;92.33;98163.22;5077857;28;20067;-93
2021/10/07 02:57:51;;;;;;;3.90;2.45;;;;;;;10.90;93.29;98177.75;5075682;28;20059;-94
2021/10/07 03:00:19;;;;;;;3.10;2.13;;;;;;;10.92;93.04;98181.22;5076399;28;20043;-94
2021/10/07 03:02:47;;;;;;;3.63;2.30;;;;;;;11.18;92.22;98196.16;5075995;28;20048;-95
2021/10/07 03:08:14;;;;;;;3.40;2.33;;;;;;;11.24;93.45;98190.63;5092471;27;20720;-96
2021/10/07 03:10:41;;;;;;;4.13;2.03;;;;;;;11.26;93.55;98195.88;5092587;28;20112;-94
2021/10/07 03:13:07;;;;;;;2.85;2.10;;;;;;;11.26;93.65;98187.91;5092846;28;20135;-95
2021/10/07 03:15:32;;;;;;;4.05;2.05;;;;;;;11.28;93.96;98186.06;5093334;28;20068;-93
2021/10/07 03:17:58;;;;;;;2.70;2.00;;;;;;;11.28;93.91;98178.06;5091727;28;20142;-94
2021/10/07 03:20:24;;;;;;;3.78;2.20;;;;;;;11.28;94.30;98180.72;5091890;28;20113;-92
2021/10/07 03:22:50;;;;;;;5.45;2.45;;;;;;;11.27;95.40;98186.97;5091838;28;20420;-94
2021/10/07 03:25:18;;;;;;;3.15;2.10;;;;;;;11.16;95.36;98158.09;5093985;28;20039;-95
2021/10/07 03:27:44;;;;;;;10.48;2.60;;;;;;;11.21;95.88;98168.56;5091585;28;20135;-94
2021/10/07 03:30:10;;;;;;;3.50;2.40;;;;;;;11.36;95.25;98183.94;5091498;28;20115;-94
2021/10/07 03:32:37;;;;;;;3.25;2.03;;;;;;;11.29;95.16;98170.00;5091565;28;20508;-95
2021/10/07 03:35:03;;;;;;;4.95;2.33;;;;;;;11.36;95.83;98181.28;5091663;28;20048;-94
2021/10/07 03:37:29;;;;;;;3.65;2.20;;;;;;;11.35;95.50;98171.56;5091890;28;20037;-94
2021/10/07 03:39:55;;;;;;;3.22;2.10;;;;;;;11.35;95.84;98181.34;5091500;28;20520;-94
2021/10/07 03:42:22;;;;;;;5.38;2.03;;;;;;;11.29;96.00;98161.16;5091157;28;20082;-95
2021/10/07 03:44:48;;;;;;;4.60;2.10;;;;;;;11.22;96.60;98147.22;5091144;28;20044;-93
2021/10/07 03:47:23;;;;;;;5.13;2.00;;;;;;;11.17;96.44;98159.84;5090998;28;20056;-93
2021/10/07 03:49:51;;;;;;;2.75;2.00;;;;;;;11.19;96.77;98162.44;5091098;28;20044;-92
2021/10/07 03:52:17;;;;;;;3.92;2.70;;;;;;;11.04;96.86;98164.78;5091229;28;20119;-94
2021/10/07 03:54:43;;;;;;;4.07;2.75;;;;;;;11.03;97.09;98167.50;5092765;28;20071;-95
2021/10/07 03:57:09;;;;;;;4.05;2.70;;;;;;;10.99;97.22;98160.56;5092930;28;20044;-93
2021/10/07 03:59:36;;;;;;;5.25;2.85;;;;;;;10.84;97.68;98146.94;5093249;28;20105;-94
2021/10/07 04:02:02;;;;;;;5.10;3.00;;;;;;;10.89;98.10;98171.56;5092251;28;20045;-95
2021/10/07 04:04:28;;;;;;;7.53;2.75;;;;;;;10.77;98.21;98155.19;5092789;28;20067;-95
2021/10/07 04:06:54;;;;;;;4.50;2.58;;;;;;;10.70;98.60;98149.25;5092535;28;20040;-95
2021/10/07 04:09:19;;;;;;;5.72;2.65;;;;;;;10.88;98.39;98179.59;5092170;28;20090;-94
2021/10/07 04:11:46;;;;;;;3.08;2.40;;;;;;;10.76;98.18;98158.78;5092795;28;20048;-94
2021/10/07 04:14:11;;;;;;;3.30;2.58;;;;;;;10.70;98.27;98165.19;5092413;28;20401;-94
2021/10/07 04:16:39;;;;;;;4.35;2.80;;;;;;;10.60;98.96;98137.22;5091988;28;20044;-94
2021/10/07 04:19:05;;;;;;;7.95;2.97;;;;;;;10.65;99.17;98141.44;5081238;28;20021;-94
2021/10/07 04:21:31;;;;;;;6.72;3.33;;;;;;;10.63;98.68;98134.44;5078745;28;20552;-93
2021/10/07 04:23:56;;;;;;;6.82;3.00;;;;;;;10.65;98.18;98140.59;5077192;28;20044;-94
2021/10/07 04:26:22;;;;;;;5.50;2.80;;;;;;;10.56;99.13;98125.84;5078771;28;20043;-94
2021/10/07 04:28:48;;;;;;;5.43;3.20;;;;;;;10.52;98.73;98125.97;5076829;28;20109;-95
2021/10/07 04:31:14;;;;;;;5.00;2.97;;;;;;;10.54;98.98;98133.00;5076633;28;20139;-94
2021/10/07 04:33:41;;;;;;;5.85;2.30;;;;;;;10.62;98.66;98128.25;5076718;28;20052;-92
2021/10/07 04:36:07;;;;;;;5.07;2.53;;;;;;;10.73;97.20;98119.84;5076642;28;20128;-94
2021/10/07 04:38:34;;;;;;;4.07;2.67;;;;;;;10.83;97.51;98131.03;5076779;28;20131;-95
2021/10/07 04:41:00;;;;;;;4.55;2.55;;;;;;;10.75;97.79;98118.00;5076760;28;20047;-93
2021/10/07 04:43:26;;;;;;;8.15;2.00;;;;;;;10.83;98.04;98121.25;5076787;28;20045;-95
2021/10/07 04:45:51;;;;;;;3.78;1.63;;;;;;;10.79;97.25;98116.97;5076088;28;20044;-95
2021/10/07 04:48:17;;;;;;;1.83;1.25;;;;;;;10.80;96.54;98107.19;5076392;28;20047;-93
2021/10/07 04:50:45;;;;;;;2.25;1.60;;;;;;;11.00;96.37;98128.59;5076593;28;20041;-92
2021/10/07 04:53:11;;;;;;;3.17;1.40;;;;;;;10.97;95.75;98117.19;5076466;28;20048;-93
2021/10/07 04:55:37;;;;;;;2.85;1.23;;;;;;;11.05;95.48;98118.63;5076666;28;20048;-93
2021/10/07 04:58:03;;;;;;;2.13;1.58;;;;;;;11.21;96.21;98139.28;5076503;28;20119;-94
2021/10/07 05:00:29;;;;;;;7.63;2.78;;;;;;;11.24;96.38;98125.88;5076315;28;20064;-95
2021/10/07 05:02:57;;;;;;;5.10;2.70;;;;;;;11.20;97.14;98118.94;5076513;28;20049;-95
2021/10/07 05:05:23;;;;;;;3.60;2.75;;;;;;;11.25;97.51;98122.28;5076194;28;20071;-93
2021/10/07 05:07:50;;;;;;;4.80;3.00;;;;;;;11.16;97.63;98112.88;5076019;28;20053;-94
2021/10/07 05:10:16;;;;;;;5.55;3.00;;;;;;;11.13;97.54;98105.03;5076348;28;20044;-94
2021/10/07 05:12:42;;;;;;;7.47;3.72;;;;;;;11.20;97.54;98121.59;5076401;28;20151;-94
2021/10/07 05:15:09;;;;;;;5.88;3.70;;;;;;;11.17;97.13;98125.25;5075919;28;20044;-93
2021/10/07 05:17:35;;;;;;;7.30;3.60;;;;;;;11.12;97.64;98118.38;5077424;28;20044;-94
2021/10/07 05:20:02;;;;;;;7.45;4.13;;;;;;;11.00;97.83;98098.47;5081327;28;20486;-95
2021/10/07 05:22:28;;;;;;;6.65;4.40;;;;;;;11.06;98.00;98109.72;5081712;28;20052;-95
2021/10/07 05:24:56;;;;;;;6.97;4.55;;;;;;;11.03;96.70;98122.28;5081627;28;20040;-96
2021/10/07 05:27:22;;;;;;;10.27;4.55;;;;;;;10.99;97.75;98112.66;5079754;28;20424;-95
2021/10/07 05:29:48;;;;;;;7.15;4.13;;;;;;;11.09;97.60;98114.91;5078999;28;20056;-95
2021/10/07 05:32:13;;;;;;;7.00;3.80;;;;;;;11.02;97.40;98096.59;5081188;28;20044;-95
2021/10/07 05:34:39;;;;;;;7.20;3.90;;;;;;;11.18;97.67;98132.31;5079957;28;20076;-96
2021/10/07 05:37:05;;;;;;;5.75;2.63;;;;;;;11.04;97.80;98092.09;5081149;28;20072;-96
2021/10/07 05:39:31;;;;;;;4.82;2.50;;;;;;;11.12;97.66;98094.44;5083197;28;20508;-95
2021/10/07 05:41:59;;;;;;;4.85;2.95;;;;;;;11.21;97.58;98097.59;5084534;28;20486;-96
2021/10/07 05:44:25;;;;;;;6.85;3.30;;;;;;;11.31;97.37;98092.75;5084922;28;20094;-96
2021/10/07 05:46:52;;;;;;;5.28;2.50;;;;;;;11.31;96.40;98092.75;5082933;28;20040;-93
2021/10/07 05:49:19;;;;;;;2.38;1.83;;;;;;;11.49;95.34;98108.00;5082375;28;20056;-96
2021/10/07 05:51:45;;;;;;;5.35;2.47;;;;;;;11.40;96.04;98100.34;5084449;28;20044;-94
2021/10/07 05:54:11;;;;;;;4.72;2.33;;;;;;;11.44;96.53;98090.47;5083084;28;20041;-94
2021/10/07 05:56:37;;;;;;;3.75;2.65;;;;;;;11.59;96.25;98108.47;5083452;28;20039;-95
2021/10/07 05:59:05;;;;;;;5.50;3.10;;;;;;;11.72;96.82;98124.78;5083591;28;20045;-94
2021/10/07 06:01:31;;;;;;;6.18;3.80;;;;;;;11.64;96.86;98113.59;5083028;28;20044;-95
2021/10/07 06:03:57;;;;;;;7.20;3.55;;;;;;;11.59;96.45;98110.25;5083290;28;20102;-94
2021/10/07 06:06:23;;;;;;;6.45;3.83;;;;;;;11.54;96.98;98098.91;5083694;28;20383;-95
2021/10/07 06:08:50;;;;;;;7.05;3.60;;;;;;;11.61;97.10;98114.59;5084656;28;20047;-96
2021/10/07 06:11:16;;;;;;;8.38;4.13;;;;;;;11.48;96.73;98095.59;5083988;28;20044;-94
2021/10/07 06:13:42;;;;;;;7.25;3.90;;;;;;;11.57;96.44;98109.47;5083810;28;20126;-96
2021/10/07 06:16:09;;;;;;;8.77;4.65;;;;;;;11.54;96.48;98099.81;5084741;28;20067;-96
2021/10/07 06:18:36;;;;;;;7.57;4.22;;;;;;;11.56;97.15;98108.59;5082696;28;20394;-95
2021/10/07 06:21:02;;;;;;;6.75;3.97;;;;;;;11.60;97.59;98117.31;5081800;28;20044;-96
2021/10/07 06:23:28;;;;;;;7.18;3.55;;;;;;;11.55;97.82;98106.84;5080159;28;20049;-96
2021/10/07 06:25:54;;;;;;;6.55;3.83;;;;;;;11.54;97.90;98113.13;5082675;28;20036;-96
2021/10/07 06:28:20;;;;;;;9.45;3.95;;;;;;;11.54;98.02;98115.78;5087236;28;20048;-96
2021/10/07 06:30:47;;;;;;;9.35;4.35;;;;;;;11.56;98.26;98113.94;5089652;28;20045;-96
2021/10/07 06:33:14;;;;;;;11.45;4.88;;;;;;;11.67;98.46;98140.97;5087214;28;20044;-96
2021/10/07 06:35:41;;;;;;;8.20;4.40;;;;;;;11.55;98.71;98121.97;5087707;28;20048;-96
2021/10/07 06:38:07;;;;;;;6.75;4.28;;;;;;;11.52;98.90;98107.00;5084301;28;20132;-96
2021/10/07 06:40:33;;;;;;;7.55;4.43;;;;;;;11.51;98.86;98118.56;5080882;28;20052;-96
2021/10/07 06:42:59;;;;;;;7.93;4.20;;;;;;;11.64;99.41;98130.44;5079857;28;20048;-96
2021/10/07 06:45:30;;;;;;;10.27;4.25;;;;;;;11.52;99.11;98107.00;5078763;28;20090;-95
2021/10/07 06:48:04;;;;;;;6.80;4.18;;;;;;;11.59;99.69;98116.44;5079889;28;20063;-96
2021/10/07 06:50:34;;;;;;;8.32;3.78;;;;;;;11.64;99.25;98110.94;5081206;28;20048;-95
2021/10/07 06:53:18;;;;;;;7.80;4.05;;;;;;;11.91;98.75;98141.75;5079905;28;20045;-95
2021/10/07 06:55:45;;;;;;;5.53;3.60;;;;;;;11.82;98.30;98118.16;5079093;28;20075;-93
2021/10/07 06:58:13;;;;;;;8.15;4.32;;;;;;;11.87;99.50;98128.59;5077943;28;20040;-96
2021/10/07 07:00:40;;;;;;;7.57;4.43;;;;;;;11.78;99.46;98103.22;5081182;28;20070;-96
2021/10/07 07:03:06;;;;;;;8.38;4.45;;;;;;;11.92;99.71;98116.84;5085866;28;20046;-95
2021/10/07 07:05:34;;;;;;;11.68;6.63;;;;;;;11.91;99.31;98107.13;5085731;28;20045;-95
2021/10/07 07:08:00;;;;;;;13.00;7.20;;;;;;;12.10;99.51;98122.31;5084846;28;20143;-96
2021/10/07 07:10:27;;;;;;;10.68;6.25;;;;;;;12.12;98.83;98110.66;5087151;28;20048;-96
2021/10/07 07:12:53;;;;;;;9.85;4.93;;;;;;;12.23;98.48;98114.63;5088194;28;20040;-96
2021/10/07 07:15:20;;;;;;;7.65;4.57;;;;;;;12.40;98.33;98128.09;5080610;28;20049;-96
2021/10/07 07:17:46;;;;;;;13.98;4.60;;;;;;;12.48;97.17;98146.41;5077632;28;20048;-95
2021/10/07 07:20:12;;;;;;;6.47;4.32;;;;;;;12.48;96.28;98127.75;5076926;28;20502;-96
2021/10/07 07:22:40;;;;;;;7.28;3.88;;;;;;;12.69;95.84;98139.25;5080219;28;20501;-95
2021/10/07 07:25:08;;;;;;;9.45;4.50;;;;;;;12.64;95.23;98135.91;5081711;28;20028;-96
2021/10/07 07:27:37;;;;;;;11.05;4.10;;;;;;;12.53;95.98;98112.41;5081828;28;20044;-96
2021/10/07 07:30:04;;;;;;;6.45;3.10;;;;;;;12.58;95.52;98110.41;5078138;28;20052;-95
2021/10/07 07:32:30;;;;;;;4.80;2.90;;;;;;;12.57;95.23;98106.00;5080648;28;20055;-95
2021/10/07 07:34:56;;;;;;;1.65;1.00;;;;;;;12.60;92.05;98099.66;5077519;28;20415;-96
2021/10/07 07:37:22;;;;;;;0.90;0.90;;;;;;;12.66;91.69;98115.38;5076434;28;20204;-94
2021/10/07 07:39:49;;;;;;;0.65;0.65;;;;;;;12.79;90.01;98121.88;5077760;28;20138;-96
2021/10/07 07:42:15;;;;;;;0.90;0.90;;;;;;;12.85;89.82;98132.25;5077452;28;20494;-95
2021/10/07 07:44:42;;;;;;;0.80;0.80;;;;;;;12.76;90.45;98119.34;5076809;28;20048;-94
2021/10/07 07:47:08;;;;;;;1.00;1.00;;;;;;;12.77;89.80;98129.06;5076187;28;20036;-94
2021/10/07 07:49:34;;;;;;;1.23;0.85;;;;;;;12.71;88.68;98129.38;5074979;28;20039;-96
2021/10/07 07:52:00;;;;;;;0.80;0.80;;;;;;;12.79;88.51;98134.34;5076438;28;20052;-95
2021/10/07 07:54:26;;;;;;;0.70;0.70;;;;;;;12.72;90.42;98123.09;5079561;28;20109;-96
2021/10/07 07:56:54;;;;;;;0.88;0.75;;;;;;;12.78;89.83;98121.97;5079720;28;20043;-95
2021/10/07 07:59:20;;;;;;;0.80;0.80;;;;;;;12.68;88.91;98135.69;5079960;28;20405;-95
2021/10/07 08:01:50;;;;;;;0.70;0.70;;;;;;;12.79;88.75;98123.69;5079147;28;20044;-95
2021/10/07 08:04:19;;;;;;;0.88;0.88;;;;;;;12.89;88.09;98138.34;5083472;28;20036;-95
2021/10/07 08:06:45;;;;;;;0.90;0.90;;;;;;;12.87;88.28;98122.38;5100254;28;20078;-96
2021/10/07 08:09:18;;;;;;;0.63;0.63;;;;;;;13.08;88.07;98143.69;5099768;28;20047;-96
2021/10/07 08:11:45;;;;;;;0.73;0.73;;;;;;;13.09;88.12;98122.22;5099693;28;20500;-96
2021/10/07 08:14:12;;;;;;;0.70;0.70;;;;;;;13.23;88.13;98134.06;5085530;28;20098;-94
2021/10/07 08:16:43;;;;;;;0.95;0.90;;;;;;;13.45;88.54;98147.28;5078870;28;20067;-95
2021/10/07 08:19:12;;;;;;;0.60;0.60;;;;;;;13.46;85.62;98138.31;5080209;28;20046;-96
2021/10/07 08:21:41;;;;;;;0.80;0.80;;;;;;;13.53;86.46;98139.75;5078926;28;20067;-95
2021/10/07 08:24:10;;;;;;;1.17;0.82;;;;;;;13.46;86.52;98138.31;5079868;28;20110;-95
2021/10/07 08:26:36;;;;;;;0.80;0.80;;;;;;;13.31;86.33;98142.59;5078489;28;20032;-96
2021/10/07 08:29:03;;;;;;;0.95;0.95;;;;;;;13.20;87.19;98150.22;5080831;28;20078;-96
2021/10/07 08:31:30;;;;;;;1.95;0.90;;;;;;;13.02;86.17;98135.97;5079304;28;20064;-94
2021/10/07 08:33:56;;;;;;;0.85;0.82;;;;;;;13.12;86.27;98142.59;5078213;28;20059;-95
2021/10/07 08:36:22;;;;;;;1.77;1.00;;;;;;;12.93;87.95;98148.78;5079527;28;20037;-96
2021/10/07 08:38:48;;;;;;;1.33;0.93;;;;;;;13.12;88.74;98163.97;5078128;28;20048;-94
2021/10/07 08:41:14;;;;;;;0.70;0.70;;;;;;;13.18;85.75;98166.31;5078268;28;20033;-95
2021/10/07 08:43:41;;;;;;;1.50;1.05;;;;;;;13.08;88.74;98170.38;5078745;28;20071;-94
2021/10/07 08:46:10;;;;;;;3.25;1.00;;;;;;;12.90;88.76;98154.28;5079787;28;20123;-95
2021/10/07 08:48:38;;;;;;;1.58;0.90;;;;;;;12.97;90.39;98165.53;5078736;28;20054;-96
2021/10/07 08:51:04;;;;;;;1.52;0.93;;;;;;;12.80;88.88;98168.97;5077979;28;20053;-96
2021/10/07 08:53:30;;;;;;;2.55;0.98;;;;;;;12.78;87.54;98154.84;5078517;28;20094;-96
2021/10/07 08:55:56;;;;;;;2.33;0.95;;;;;;;12.84;89.36;98181.25;5079524;28;20064;-96
2021/10/07 08:58:22;;;;;;;1.45;0.85;;;;;;;12.79;90.46;98175.22;5078677;28;20048;-96
2021/10/07 09:00:48;;;;;;;1.40;1.02;;;;;;;12.85;88.45;98188.28;5078592;28;20048;-95
2021/10/07 09:03:19;;;;;;;1.27;0.90;;;;;;;12.64;87.72;98167.91;5079199;28;20039;-96
2021/10/07 09:05:46;;;;;;;1.92;0.90;;;;;;;12.67;88.13;98181.16;5080716;28;20037;-95
2021/10/07 09:08:14;;;;;;;2.05;1.10;;;;;;;12.65;89.32;98170.53;5080168;28;20520;-96
2021/10/07 09:13:41;;;;;;;1.85;1.08;;;;;;;12.80;87.54;98197.47;5130710;27;20368;-94
2021/10/07 09:16:07;;;;;;;0.90;0.90;;;;;;;12.77;87.41;98179.75;5114944;28;20047;-96
2021/10/07 09:18:33;;;;;;;2.45;1.10;;;;;;;12.86;86.96;98194.50;5114841;28;20040;-96
2021/10/07 09:21:00;;;;;;;1.00;0.90;;;;;;;12.77;86.84;98182.44;5115056;28;20055;-94
2021/10/07 09:23:29;;;;;;;1.42;1.10;;;;;;;12.87;87.63;98212.25;5114099;28;20126;-95
2021/10/07 09:26:04;;;;;;;0.90;0.90;;;;;;;12.86;87.59;98189.16;5116146;28;20128;-95
2021/10/07 09:28:50;;;;;;;2.85;1.00;;;;;;;12.92;88.18;98178.19;5115265;28;20382;-96
2021/10/07 09:31:22;;;;;;;1.90;1.13;;;;;;;12.96;87.10;98182.47;5116712;28;20039;-95
2021/10/07 09:33:52;;;;;;;2.55;1.10;;;;;;;13.10;87.78;98173.84;5120628;27;20566;-94
2021/10/07 09:36:19;;;;;;;0.90;0.90;;;;;;;13.21;87.43;98182.19;5114575;28;20048;-96
2021/10/07 09:38:48;;;;;;;1.92;1.00;;;;;;;13.13;86.48;98160.34;5114630;28;20047;-93
2021/10/07 09:41:16;;;;;;;1.55;1.00;;;;;;;13.26;85.04;98180.16;5114437;28;20047;-96
2021/10/07 09:43:44;;;;;;;1.30;1.00;;;;;;;13.35;85.11;98181.56;5114972;28;20048;-95
2021/10/07 09:46:11;;;;;;;1.20;1.10;;;;;;;13.28;86.17;98166.75;5115137;28;20043;-95
2021/10/07 09:48:39;;;;;;;1.45;0.88;;;;;;;13.33;84.19;98162.94;5119717;28;20047;-95
2021/10/07 09:51:12;;;;;;;1.52;1.20;;;;;;;13.38;84.49;98159.19;5113838;28;20039;-96
2021/10/07 09:53:42;;;;;;;1.17;1.08;;;;;;;13.33;85.58;98160.28;5113940;28;20051;-93
2021/10/07 09:56:23;;;;;;;2.78;1.02;;;;;;;13.45;86.41;98160.63;5112807;28;20044;-95
2021/10/07 09:58:49;;;;;;;1.25;1.23;;;;;;;13.47;84.46;98164.09;5112342;28;20834;-93
2021/10/07 10:01:17;;;;;;;1.35;0.80;;;;;;;13.45;84.72;98176.66;5113883;28;20048;-94
2021/10/07 10:03:44;;;;;;;0.90;0.90;;;;;;;13.50;84.06;98180.81;5118144;28;20052;-94
2021/10/07 10:06:12;;;;;;;1.15;1.10;;;;;;;13.34;85.86;98154.00;5115221;28;20048;-96
2021/10/07 10:08:38;;;;;;;1.92;1.20;;;;;;;13.34;85.83;98171.84;5118704;28;20040;-93
2021/10/07 10:11:05;;;;;;;1.40;1.30;;;;;;;13.26;86.92;98164.16;5115906;28;20036;-94
2021/10/07 10:13:33;;;;;;;4.75;1.73;;;;;;;13.17;86.76;98164.59;5117600;28;20108;-96
2021/10/07 10:15:59;;;;;;;1.50;1.10;;;;;;;13.20;87.18;98179.59;5117369;28;20036;-94
2021/10/07 10:18:28;;;;;;;1.98;1.40;;;;;;;13.25;87.65;98180.22;5116757;28;20047;-96
2021/10/07 10:20:55;;;;;;;1.50;1.30;;;;;;;13.21;89.14;98195.56;5114446;28;20047;-94
2021/10/07 10:23:23;;;;;;;2.50;1.40;;;;;;;13.31;88.20;98190.66;5116591;28;20063;-94
2021/10/07 10:25:55;;;;;;;1.98;1.40;;;;;;;13.15;89.02;98158.47;5122417;28;20130;-95
2021/10/07 10:28:29;;;;;;;2.22;1.45;;;;;;;13.17;89.15;98151.25;5124533;28;20055;-95
2021/10/07 10:31:02;;;;;;;1.60;1.42;;;;;;;13.33;88.71;98178.97;5127677;28;20493;-94
2021/10/07 10:33:32;;;;;;;2.90;1.85;;;;;;;13.17;90.61;98164.59;5124667;28;20032;-95
2021/10/07 10:35:58;;;;;;;2.67;1.60;;;;;;;13.19;89.81;98151.19;5130266;28;20063;-94
2021/10/07 10:38:26;;;;;;;2.65;1.30;;;;;;;12.99;91.31;98147.66;5116866;28;20143;-94
2021/10/07 10:40:52;;;;;;;2.60;1.60;;;;;;;13.09;90.31;98159.59;5098154;28;20044;-95
2021/10/07 10:43:34;;;;;;;1.35;1.20;;;;;;;13.16;90.42;98176.19;5108004;28;20505;-94
2021/10/07 10:46:14;;;;;;;4.05;1.42;;;;;;;13.15;89.37;98179.81;5104297;28;20103;-95
2021/10/07 10:49:15;;;;;;;1.30;1.20;;;;;;;13.17;87.61;98156.59;5106076;28;20048;-96
2021/10/07 10:51:48;;;;;;;1.35;1.10;;;;;;;13.27;88.98;98171.25;5108256;28;20063;-95
2021/10/07 10:54:15;;;;;;;1.83;1.17;;;;;;;13.08;89.40;98157.03;5103631;28;20044;-96
2021/10/07 10:56:57;;;;;;;1.10;1.10;;;;;;;13.21;89.39;98176.00;5104045;28;20047;-96
2021/10/07 10:59:24;;;;;;;1.15;1.08;;;;;;;13.23;88.62;98161.63;5101998;28;20063;-94
2021/10/07 11:02:25;;;;;;;1.13;1.05;;;;;;;13.55;87.89;98205.53;5101615;28;20048;-95
2021/10/07 11:04:54;;;;;;;1.05;1.05;;;;;;;13.63;88.32;98185.59;5097403;28;20042;-94
2021/10/07 11:07:23;;;;;;;1.48;1.00;;;;;;;13.54;87.76;98198.44;5097756;28;20055;-95
2021/10/07 11:10:01;;;;;;;1.10;1.00;;;;;;;13.67;87.68;98185.34;5100044;28;20079;-95
2021/10/07 11:12:32;;;;;;;1.95;1.23;;;;;;;13.77;87.66;98167.09;5100316;28;20353;-95
2021/10/07 11:14:59;;;;;;;1.10;1.10;;;;;;;13.79;87.02;98166.97;5101412;28;20040;-95
2021/10/07 11:17:29;;;;;;;1.50;0.95;;;;;;;13.84;86.49;98173.84;5102779;28;20108;-94
2021/10/07 11:19:57;;;;;;;0.90;0.90;;;;;;;14.03;86.31;98167.56;5100443;28;20048;-96
2021/10/07 11:22:25;;;;;;;2.92;1.00;;;;;;;14.29;85.65;98167.09;5102170;28;20040;-95
2021/10/07 11:24:52;;;;;;;1.90;0.90;;;;;;;14.34;84.70;98181.09;5105720;28;20048;-95
2021/10/07 11:27:47;;;;;;;1.05;0.93;;;;;;;14.40;85.83;98182.59;5102219;28;20048;-96
2021/10/07 11:30:19;;;;;;;0.85;0.85;;;;;;;13.98;85.12;98181.16;5059152;28;20450;-96
2021/10/07 11:32:46;;;;;;;0.73;0.73;;;;;;;14.09;84.38;98192.16;5058283;28;20119;-96
2021/10/07 11:35:15;;;;;;;0.80;0.80;;;;;;;14.10;84.21;98183.22;5057015;28;20048;-96
2021/10/07 11:38:04;;;;;;;0.70;0.70;;;;;;;13.94;85.67;98196.50;5059016;28;20068;-95
2021/10/07 11:40:36;;;;;;;3.08;1.20;;;;;;;13.64;86.85;98168.59;5059572;28;20049;-96
2021/10/07 11:43:04;;;;;;;1.33;1.00;;;;;;;13.56;87.68;98187.69;5056314;28;20087;-96
2021/10/07 11:45:32;;;;;;;0.80;0.80;;;;;;;13.46;87.63;98178.38;5056646;28;20530;-95
2021/10/07 11:48:00;;;;;;;0.85;0.80;;;;;;;13.48;89.04;98172.03;5058167;28;20538;-96
2021/10/07 11:50:28;;;;;;;0.90;0.90;;;;;;;13.10;89.69;98171.16;5059796;28;20050;-96
2021/10/07 11:52:56;;;;;;;0.88;0.88;;;;;;;13.17;88.73;98166.41;5057989;28;20053;-96
2021/10/07 11:55:24;;;;;;;0.80;0.80;;;;;;;13.19;88.57;98164.53;5060726;28;20052;-96